createdAt,value
2023-04-18T00:01:55.765Z,99745.23
2023-04-18T00:04:24.168Z,99741.30
2023-04-18T00:06:52.418Z,99737.48
2023-04-18T00:09:20.812Z,99741.80
2023-04-18T00:11:48.913Z,99737.90
2023-04-18T00:14:17.039Z,99734.18
2023-04-18T00:16:46.425Z,99736.14
2023-04-18T00:19:14.600Z,99731.27
2023-04-18T00:21:44.914Z,99730.23
2023-04-18T00:24:13.537Z,99728.65
2023-04-18T00:26:41.961Z,99730.48
2023-04-18T00:29:10.042Z,99728.23
2023-04-18T00:31:38.468Z,99728.98
2023-04-18T00:34:06.623Z,99726.63
2023-04-18T00:36:34.876Z,99720.55
2023-04-18T00:39:03.819Z,99721.23
2023-04-18T00:41:32.503Z,99718.47
2023-04-18T00:44:01.557Z,99718.05
2023-04-18T00:46:29.853Z,99717.20
2023-04-18T00:48:58.168Z,99720.03
2023-04-18T00:51:28.091Z,99719.48
2023-04-18T00:53:57.143Z,99719.39
2023-04-18T00:56:26.059Z,99718.38
2023-04-18T00:58:54.498Z,99714.70
2023-04-18T01:01:22.542Z,99719.17
2023-04-18T01:03:51.294Z,99718.18
2023-04-18T01:06:19.878Z,99718.31
2023-04-18T01:08:48.086Z,99720.13
2023-04-18T01:11:16.193Z,99718.39
2023-04-18T01:14:01.751Z,99717.12
2023-04-18T01:16:32.867Z,99718.81
2023-04-18T01:19:02.269Z,99715.30
2023-04-18T01:21:31.361Z,99713.58
2023-04-18T01:24:19.889Z,99710.79
2023-04-18T01:26:48.901Z,99710.23
2023-04-18T01:29:21.462Z,99709.75
2023-04-18T01:31:53.944Z,99713.67
2023-04-18T01:34:21.984Z,99711.33
2023-04-18T01:36:50.180Z,99708.54
2023-04-18T01:39:18.575Z,99711.06
2023-04-18T01:41:46.822Z,99707.84
2023-04-18T01:44:15.132Z,99707.02
2023-04-18T01:46:43.660Z,99708.27
2023-04-18T01:49:11.746Z,99709.88
2023-04-18T01:51:39.948Z,99713.45
2023-04-18T01:54:08.119Z,99712.83
2023-04-18T01:56:36.507Z,99711.15
2023-04-18T01:59:04.804Z,99707.17
2023-04-18T02:01:33.956Z,99704.86
2023-04-18T02:04:02.119Z,99709.48
2023-04-18T02:06:30.917Z,99702.85
2023-04-18T02:09:01.153Z,99699.39
2023-04-18T02:11:30.061Z,99699.22
2023-04-18T02:13:59.726Z,99690.64
2023-04-18T02:16:27.949Z,99690.65
2023-04-18T02:18:56.651Z,99694.08
2023-04-18T02:21:24.689Z,99690.81
2023-04-18T02:23:53.588Z,99685.35
2023-04-18T02:26:23.685Z,99688.03
2023-04-18T02:28:53.728Z,99689.02
2023-04-18T02:31:23.118Z,99686.09
2023-04-18T02:33:51.329Z,99685.73
2023-04-18T02:36:23.510Z,99684.38
2023-04-18T02:38:51.484Z,99691.31
2023-04-18T02:41:21.455Z,99691.83
2023-04-18T02:43:49.578Z,99689.55
2023-04-18T02:46:18.135Z,99690.13
2023-04-18T02:48:48.518Z,99692.29
2023-04-18T02:51:16.978Z,99690.30
2023-04-18T02:53:45.073Z,99687.52
2023-04-18T02:56:17.575Z,99687.52
2023-04-18T02:59:04.453Z,99681.33
2023-04-18T03:01:48.357Z,99676.24
2023-04-18T03:04:19.848Z,99675.44
2023-04-18T03:06:59.297Z,99674.34
2023-04-18T03:09:28.058Z,99677.50
2023-04-18T03:11:59.384Z,99677.88
2023-04-18T03:14:28.726Z,99671.86
2023-04-18T03:16:57.201Z,99673.35
2023-04-18T03:19:29.363Z,99674.67
2023-04-18T03:21:59.271Z,99673.73
2023-04-18T03:24:28.498Z,99674.98
2023-04-18T03:26:59.906Z,99677.17
2023-04-18T03:29:28.416Z,99679.47
2023-04-18T03:31:57.231Z,99681.83
2023-04-18T03:34:25.409Z,99682.35
2023-04-18T03:36:54.164Z,99688.23
2023-04-18T03:39:25.526Z,99689.26
2023-04-18T03:41:54.282Z,99690.41
2023-04-18T03:44:22.496Z,99691.26
2023-04-18T03:46:50.701Z,99690.75
2023-04-18T03:49:19.499Z,99690.52
2023-04-18T03:51:50.793Z,99698.45
2023-04-18T03:54:19.151Z,99693.09
2023-04-18T03:56:47.306Z,99692.83
2023-04-18T03:59:15.871Z,99691.51
2023-04-18T04:01:46.734Z,99696.47
2023-04-18T04:04:15.728Z,99696.38
2023-04-18T04:06:44.338Z,99691.40
2023-04-18T04:09:12.514Z,99697.26
2023-04-18T04:11:40.874Z,99700.73
2023-04-18T04:14:11.042Z,99702.89
2023-04-18T04:16:42.677Z,99705.32
2023-04-18T04:19:11.740Z,99709.41
2023-04-18T04:21:44.841Z,99712.38
2023-04-18T04:24:16.049Z,99714.32
2023-04-18T04:26:50.824Z,99716.02
2023-04-18T04:29:21.653Z,99718.39
2023-04-18T04:31:50.327Z,99721.17
2023-04-18T04:34:26.975Z,99717.80
2023-04-18T04:36:55.538Z,99721.59
2023-04-18T04:39:25.078Z,99714.24
2023-04-18T04:42:04.746Z,99715.82
2023-04-18T04:44:43.948Z,99715.80
2023-04-18T04:47:12.335Z,99719.22
2023-04-18T04:49:40.893Z,99724.40
2023-04-18T04:52:09.083Z,99726.77
2023-04-18T04:54:37.364Z,99731.13
2023-04-18T04:57:06.045Z,99735.22
2023-04-18T04:59:34.524Z,99738.23
2023-04-18T05:02:03.060Z,99737.23
2023-04-18T05:04:31.616Z,99739.88
2023-04-18T05:06:59.978Z,99740.88
2023-04-18T05:09:28.091Z,99741.63
2023-04-18T05:11:56.267Z,99742.98
2023-04-18T05:14:25.315Z,99741.03
2023-04-18T05:16:53.834Z,99742.68
2023-04-18T05:19:22.114Z,99742.50
2023-04-18T05:21:50.309Z,99743.42
2023-04-18T05:24:18.720Z,99745.90
2023-04-18T05:26:46.840Z,99748.70
2023-04-18T05:29:14.973Z,99745.25
2023-04-18T05:31:43.113Z,99745.55
2023-04-18T05:34:11.362Z,99744.11
2023-04-18T05:36:39.800Z,99742.79
2023-04-18T05:39:08.278Z,99743.06
2023-04-18T05:41:36.894Z,99741.92
2023-04-18T05:44:05.857Z,99738.58
2023-04-18T05:46:34.374Z,99740.35
2023-04-18T05:49:02.810Z,99737.45
2023-04-18T05:51:31.460Z,99741.31
2023-04-18T05:53:59.735Z,99738.64
2023-04-18T05:56:27.834Z,99740.48
2023-04-18T05:58:56.185Z,99739.08
2023-04-18T06:01:24.296Z,99741.10
2023-04-18T06:03:52.541Z,99740.44
2023-04-18T06:06:21.857Z,99742.80
2023-04-18T06:08:49.979Z,99734.75
2023-04-18T06:11:20.241Z,99735.80
2023-04-18T06:13:49.754Z,99739.76
2023-04-18T06:16:18.076Z,99737.85
2023-04-18T06:18:46.814Z,99739.65
2023-04-18T06:21:14.909Z,99745.18
2023-04-18T06:23:42.974Z,99749.92
2023-04-18T06:26:11.969Z,99752.65
2023-04-18T06:28:40.297Z,99751.85
2023-04-18T06:31:08.733Z,99753.09
2023-04-18T06:33:37.932Z,99752.77
2023-04-18T06:36:07.309Z,99753.92
2023-04-18T06:38:35.803Z,99748.58
2023-04-18T06:41:04.098Z,99753.84
2023-04-18T06:43:32.879Z,99752.13
2023-04-18T06:46:04.691Z,99746.69
2023-04-18T06:48:32.877Z,99743.49
2023-04-18T06:51:01.417Z,99741.00
2023-04-18T06:53:29.641Z,99741.07
2023-04-18T06:55:57.705Z,99739.95
2023-04-18T06:58:25.976Z,99745.20
2023-04-18T07:00:54.444Z,99749.34
2023-04-18T07:03:23.011Z,99746.11
2023-04-18T07:05:51.635Z,99746.49
2023-04-18T07:08:20.843Z,99742.07
2023-04-18T07:10:48.934Z,99732.92
2023-04-18T07:13:18.044Z,99728.00
2023-04-18T07:15:46.195Z,99720.78
2023-04-18T07:18:20.560Z,99719.20
2023-04-18T07:20:54.819Z,99732.35
2023-04-18T07:23:23.207Z,99741.84
2023-04-18T07:25:51.855Z,99743.66
2023-04-18T07:28:21.037Z,99740.70
2023-04-18T07:30:49.093Z,99739.33
2023-04-18T07:33:17.808Z,99741.02
2023-04-18T07:35:47.294Z,99746.96
2023-04-18T07:38:16.728Z,99748.75
2023-04-18T07:40:45.694Z,99753.01
2023-04-18T07:43:14.044Z,99757.23
2023-04-18T07:45:43.430Z,99756.39
2023-04-18T07:48:11.722Z,99761.73
2023-04-18T07:50:40.291Z,99761.65
2023-04-18T07:53:09.212Z,99765.11
2023-04-18T07:55:37.622Z,99764.05
2023-04-18T07:58:06.012Z,99765.45
2023-04-18T08:00:37.138Z,99769.03
2023-04-18T08:03:07.803Z,99768.64
2023-04-18T08:05:36.209Z,99770.15
2023-04-18T08:08:06.346Z,99768.23
2023-04-18T08:10:34.959Z,99763.70
2023-04-18T08:13:03.363Z,99763.37
2023-04-18T08:15:32.949Z,99766.51
2023-04-18T08:18:01.459Z,99763.82
2023-04-18T08:20:29.914Z,99763.50
2023-04-18T08:23:07.313Z,99759.58
2023-04-18T08:25:39.101Z,99758.64
2023-04-18T08:28:08.304Z,99759.81
2023-04-18T08:30:36.807Z,99757.30
2023-04-18T08:33:05.013Z,99758.19
2023-04-18T08:35:33.785Z,99756.06
2023-04-18T08:38:02.751Z,99759.64
2023-04-18T08:40:31.806Z,99750.20
2023-04-18T08:42:59.933Z,99753.10
2023-04-18T08:45:28.923Z,99753.52
2023-04-18T08:47:58.998Z,99753.84
2023-04-18T08:50:27.854Z,99754.41
2023-04-18T08:52:56.214Z,99756.69
2023-04-18T08:55:24.406Z,99757.90
2023-04-18T08:57:54.973Z,99753.10
2023-04-18T09:00:23.790Z,99756.67
2023-04-18T09:02:57.003Z,99754.61
2023-04-18T09:05:26.988Z,99750.89
2023-04-18T09:07:56.222Z,99745.77
2023-04-18T09:10:34.427Z,99743.50
2023-04-18T09:13:03.766Z,99745.15
2023-04-18T09:15:34.568Z,99742.04
2023-04-18T09:18:03.514Z,99746.51
2023-04-18T09:20:41.418Z,99745.53
2023-04-18T09:23:11.496Z,99746.02
2023-04-18T09:25:48.172Z,99740.34
2023-04-18T09:28:28.810Z,99744.10
2023-04-18T09:30:57.633Z,99745.75
2023-04-18T09:33:32.574Z,99742.73
2023-04-18T09:36:16.863Z,99741.14
2023-04-18T09:38:45.054Z,99740.92
2023-04-18T09:41:13.609Z,99742.96
2023-04-18T09:43:41.890Z,99737.34
2023-04-18T09:46:10.203Z,99739.88
2023-04-18T09:48:40.230Z,99735.89
2023-04-18T09:51:15.050Z,99732.20
2023-04-18T09:53:47.921Z,99729.84
2023-04-18T09:56:26.359Z,99728.44
2023-04-18T09:58:58.922Z,99719.45
2023-04-18T10:01:28.162Z,99726.84
2023-04-18T10:03:56.850Z,99728.38
2023-04-18T10:06:26.989Z,99727.54
2023-04-18T10:08:55.104Z,99726.77
2023-04-18T10:11:24.395Z,99726.73
2023-04-18T10:13:55.232Z,99728.45
2023-04-18T10:16:23.397Z,99726.09
2023-04-18T10:18:51.912Z,99723.33
2023-04-18T10:21:20.613Z,99721.02
2023-04-18T10:23:49.281Z,99715.16
2023-04-18T10:26:17.392Z,99714.48
2023-04-18T10:28:55.110Z,99713.33
2023-04-18T10:31:27.810Z,99713.05
2023-04-18T10:36:30.728Z,99710.80
2023-04-18T10:39:04.222Z,99707.11
2023-04-18T10:41:34.386Z,99703.45
2023-04-18T10:44:18.337Z,99712.69
2023-04-18T10:46:52.469Z,99711.30
2023-04-18T10:49:26.852Z,99712.35
2023-04-18T10:52:02.889Z,99706.17
2023-04-18T10:54:39.251Z,99704.81
2023-04-18T10:57:11.369Z,99714.51
2023-04-18T10:59:43.792Z,99710.48
2023-04-18T11:02:24.580Z,99711.29
2023-04-18T11:04:53.960Z,99714.47
2023-04-18T11:07:41.822Z,99715.61
2023-04-18T11:10:10.104Z,99712.63
2023-04-18T11:12:40.865Z,99718.06
2023-04-18T11:15:22.294Z,99716.61
2023-04-18T11:17:58.724Z,99714.73
2023-04-18T11:20:27.137Z,99709.48
2023-04-18T11:22:58.867Z,99706.27
2023-04-18T11:25:28.026Z,99712.14
2023-04-18T11:27:58.884Z,99709.44
2023-04-18T11:30:27.368Z,99713.61
2023-04-18T11:32:56.159Z,99714.15
2023-04-18T11:35:24.624Z,99717.55
2023-04-18T11:37:54.248Z,99721.80
2023-04-18T11:40:22.399Z,99713.55
2023-04-18T11:42:50.906Z,99713.61
2023-04-18T11:45:18.995Z,99716.06
2023-04-18T11:47:47.432Z,99716.78
2023-04-18T11:50:15.694Z,99711.98
2023-04-18T11:52:44.201Z,99712.55
2023-04-18T11:55:17.923Z,99710.08
2023-04-18T11:57:52.108Z,99710.25
2023-04-18T12:00:30.914Z,99707.33
2023-04-18T12:02:59.505Z,99703.97
2023-04-18T12:05:32.178Z,99703.47
2023-04-18T12:08:13.778Z,99701.21
2023-04-18T12:10:54.722Z,99689.08
2023-04-18T12:13:32.051Z,99692.92
2023-04-18T12:16:01.941Z,99693.96
2023-04-18T12:18:31.642Z,99690.62
2023-04-18T12:21:02.365Z,99690.17
2023-04-18T12:23:39.145Z,99686.14
2023-04-18T12:26:14.656Z,99685.73
2023-04-18T12:28:44.839Z,99683.42
2023-04-18T12:31:13.095Z,99679.75
2023-04-18T12:33:41.345Z,99668.14
2023-04-18T12:36:10.081Z,99665.29
2023-04-18T12:38:38.254Z,99658.41
2023-04-18T12:41:06.432Z,99650.33
2023-04-18T12:43:34.666Z,99646.35
2023-04-18T12:46:02.741Z,99644.27
2023-04-18T12:48:30.983Z,99640.21
2023-04-18T12:50:59.126Z,99634.92
2023-04-18T12:53:27.383Z,99631.90
2023-04-18T12:55:56.572Z,99631.59
2023-04-18T12:58:24.679Z,99632.13
2023-04-18T13:00:52.765Z,99628.02
2023-04-18T13:03:21.358Z,99627.56
2023-04-18T13:05:49.804Z,99625.63
2023-04-18T13:08:18.277Z,99621.21
2023-04-18T13:10:47.788Z,99620.40
2023-04-18T13:13:16.274Z,99618.19
2023-04-18T13:15:44.408Z,99620.70
2023-04-18T13:18:12.491Z,99618.18
2023-04-18T13:20:40.720Z,99618.11
2023-04-18T13:23:09.058Z,99617.51
2023-04-18T13:25:37.177Z,99613.09
2023-04-18T13:28:05.673Z,99610.37
2023-04-18T13:30:35.835Z,99610.91
2023-04-18T13:33:04.255Z,99609.10
2023-04-18T13:35:34.837Z,99610.20
2023-04-18T13:38:03.006Z,99610.64
2023-04-18T13:40:31.222Z,99607.30
2023-04-18T13:42:59.517Z,99614.14
2023-04-18T13:45:27.737Z,99614.11
2023-04-18T13:47:56.122Z,99608.15
2023-04-18T13:50:24.520Z,99607.19
2023-04-18T13:52:54.813Z,99606.59
2023-04-18T13:55:23.168Z,99612.48
2023-04-18T13:57:51.435Z,99610.77
2023-04-18T14:00:20.647Z,99610.12
2023-04-18T14:02:49.946Z,99612.77
2023-04-18T14:05:18.134Z,99615.86
2023-04-18T14:07:48.635Z,99612.34
2023-04-18T14:10:17.772Z,99623.63
2023-04-18T14:12:46.135Z,99628.92
2023-04-18T14:15:14.685Z,99624.16
2023-04-18T14:17:45.472Z,99619.18
2023-04-18T14:20:20.468Z,99619.45
2023-04-18T14:22:52.362Z,99610.38
2023-04-18T14:25:22.534Z,99616.22
2023-04-18T14:28:06.876Z,99611.09
2023-04-18T14:30:36.576Z,99614.31
2023-04-18T14:33:04.911Z,99616.89
2023-04-18T14:35:33.083Z,99614.03
2023-04-18T14:38:01.225Z,99610.34
2023-04-18T14:40:32.585Z,99605.27
2023-04-18T14:43:01.242Z,99606.40
2023-04-18T14:45:33.650Z,99606.96
2023-04-18T14:48:01.827Z,99606.64
2023-04-18T14:50:30.904Z,99608.89
2023-04-18T14:52:58.988Z,99606.97
2023-04-18T14:55:27.174Z,99603.82
2023-04-18T14:57:55.759Z,99599.31
2023-04-18T15:00:23.852Z,99606.88
2023-04-18T15:02:53.115Z,99609.95
2023-04-18T15:05:23.911Z,99604.95
2023-04-18T15:07:52.280Z,99606.64
2023-04-18T15:10:22.552Z,99612.79
2023-04-18T15:12:51.381Z,99610.89
2023-04-18T15:15:20.057Z,99615.40
2023-04-18T15:17:48.332Z,99618.95
2023-04-18T15:20:16.508Z,99622.06
2023-04-18T15:22:44.571Z,99625.00
2023-04-18T15:25:16.428Z,99622.87
2023-04-18T15:27:52.945Z,99624.31
2023-04-18T15:30:22.299Z,99624.48
2023-04-18T15:32:50.517Z,99628.34
2023-04-18T15:35:18.698Z,99625.62
2023-04-18T15:37:47.078Z,99623.67
2023-04-18T15:40:16.597Z,99622.73
2023-04-18T15:42:44.861Z,99629.75
2023-04-18T15:45:13.231Z,99624.84
2023-04-18T15:47:41.877Z,99622.81
2023-04-18T15:50:10.423Z,99626.00
2023-04-18T15:52:40.928Z,99622.66
2023-04-18T15:55:11.093Z,99620.67
2023-04-18T15:57:39.861Z,99624.42
2023-04-18T16:00:12.098Z,99621.56
2023-04-18T16:02:40.360Z,99626.68
2023-04-18T16:05:08.676Z,99624.26
2023-04-18T16:07:37.652Z,99623.12
2023-04-18T16:10:09.399Z,99616.04
2023-04-18T16:12:37.961Z,99621.19
2023-04-18T16:15:07.028Z,99619.06
2023-04-18T16:17:36.128Z,99619.55
2023-04-18T16:20:06.490Z,99615.58
2023-04-18T16:22:37.216Z,99623.89
2023-04-18T16:25:06.826Z,99622.98
2023-04-18T16:27:42.690Z,99617.32
2023-04-18T16:30:11.246Z,99596.32
2023-04-18T16:32:39.932Z,99581.47
2023-04-18T16:35:10.334Z,99581.20
2023-04-18T16:37:43.004Z,99584.09
2023-04-18T16:40:17.823Z,99582.75
2023-04-18T16:42:46.002Z,99579.45
2023-04-18T16:45:14.330Z,99582.70
2023-04-18T16:47:42.557Z,99588.39
2023-04-18T16:50:12.194Z,99591.20
2023-04-18T16:52:40.730Z,99593.48
2023-04-18T16:55:09.383Z,99586.58
2023-04-18T16:57:37.846Z,99583.15
2023-04-18T17:00:06.864Z,99581.52
2023-04-18T17:02:35.842Z,99579.98
2023-04-18T17:05:04.813Z,99575.48
2023-04-18T17:07:33.994Z,99573.38
2023-04-18T17:10:02.532Z,99566.61
2023-04-18T17:12:31.396Z,99565.79
2023-04-18T17:14:59.426Z,99565.80
2023-04-18T17:17:29.240Z,99563.58
2023-04-18T17:19:58.700Z,99559.52
2023-04-18T17:22:27.021Z,99560.03
2023-04-18T17:24:55.231Z,99566.77
2023-04-18T17:27:23.470Z,99563.47
2023-04-18T17:29:52.849Z,99564.86
2023-04-18T17:32:22.690Z,99573.61
2023-04-18T17:34:57.058Z,99575.61
2023-04-18T17:37:37.159Z,99576.66
2023-04-18T17:40:09.597Z,99575.11
2023-04-18T17:42:38.599Z,99574.30
2023-04-18T17:45:07.764Z,99575.41
2023-04-18T17:47:36.857Z,99569.09
2023-04-18T17:50:07.447Z,99553.14
2023-04-18T17:52:42.142Z,99542.69
2023-04-18T17:55:11.442Z,99540.84
2023-04-18T17:57:39.619Z,99545.45
2023-04-18T18:00:11.761Z,99543.59
2023-04-18T18:02:43.221Z,99542.00
2023-04-18T18:05:14.863Z,99538.94
2023-04-18T18:07:48.460Z,99540.61
2023-04-18T18:10:47.097Z,99539.21
2023-04-18T18:13:16.992Z,99544.73
2023-04-18T18:15:45.621Z,99542.66
2023-04-18T18:18:31.503Z,99538.02
2023-04-18T18:21:00.930Z,99532.17
2023-04-18T18:23:49.129Z,99529.18
2023-04-18T18:26:24.832Z,99524.32
2023-04-18T18:29:09.457Z,99520.38
2023-04-18T18:31:38.381Z,99520.31
2023-04-18T18:34:11.053Z,99521.67
2023-04-18T18:36:45.477Z,99515.91
2023-04-18T18:39:16.470Z,99508.20
2023-04-18T18:41:44.875Z,99500.08
2023-04-18T18:44:13.096Z,99496.80
2023-04-18T18:46:43.374Z,99496.63
2023-04-18T18:49:14.178Z,99491.25
2023-04-18T18:51:48.972Z,99489.10
2023-04-18T18:54:18.996Z,99486.98
2023-04-18T18:56:47.103Z,99484.59
2023-04-18T18:59:19.520Z,99480.08
2023-04-18T19:01:58.285Z,99481.17
2023-04-18T19:04:27.134Z,99475.05
2023-04-18T19:06:57.010Z,99472.63
2023-04-18T19:09:25.342Z,99468.83
2023-04-18T19:12:28.395Z,99468.92
2023-04-18T19:15:06.021Z,99464.30
2023-04-18T19:17:43.005Z,99466.20
2023-04-18T19:20:14.005Z,99463.35
2023-04-18T19:22:44.054Z,99459.49
2023-04-18T19:25:19.051Z,99454.53
2023-04-18T19:27:48.009Z,99450.66
2023-04-18T19:30:16.242Z,99451.20
2023-04-18T19:32:44.767Z,99447.77
2023-04-18T19:35:13.465Z,99442.10
2023-04-18T19:37:41.984Z,99437.30
2023-04-18T19:40:10.621Z,99438.16
2023-04-18T19:42:39.044Z,99434.20
2023-04-18T19:45:07.652Z,99433.64
2023-04-18T19:47:37.057Z,99430.63
2023-04-18T19:50:06.049Z,99429.93
2023-04-18T19:52:34.455Z,99428.45
2023-04-18T19:55:03.233Z,99426.69
2023-04-18T19:57:31.793Z,99424.39
2023-04-18T20:00:00.038Z,99419.29
2023-04-18T20:02:30.262Z,99420.95
2023-04-18T20:04:59.069Z,99414.17
2023-04-18T20:07:34.707Z,99411.36
2023-04-18T20:10:04.494Z,99409.98
2023-04-18T20:12:34.033Z,99408.15
2023-04-18T20:15:02.246Z,99405.77
2023-04-18T20:17:30.673Z,99406.38
2023-04-18T20:19:59.595Z,99406.19
2023-04-18T20:22:27.803Z,99402.08
2023-04-18T20:24:57.384Z,99394.59
2023-04-18T20:27:25.495Z,99391.79
2023-04-18T20:29:56.083Z,99390.24
2023-04-18T20:32:27.270Z,99395.40
2023-04-18T20:34:55.421Z,99392.23
2023-04-18T20:37:30.110Z,99387.79
2023-04-18T20:40:02.973Z,99381.95
2023-04-18T20:42:33.172Z,99380.91
2023-04-18T20:45:03.213Z,99373.90
2023-04-18T20:47:33.706Z,99369.42
2023-04-18T20:50:02.005Z,99369.63
2023-04-18T20:52:34.014Z,99362.25
2023-04-18T20:55:02.128Z,99361.95
2023-04-18T20:57:30.465Z,99359.44
2023-04-18T20:59:59.924Z,99356.41
2023-04-18T21:02:28.249Z,99353.22
2023-04-18T21:04:59.188Z,99351.17
2023-04-18T21:07:29.808Z,99349.95
2023-04-18T21:09:58.312Z,99347.63
2023-04-18T21:12:33.064Z,99346.82
2023-04-18T21:15:04.460Z,99347.02
2023-04-18T21:17:33.063Z,99341.14
2023-04-18T21:20:03.582Z,99342.40
2023-04-18T21:22:31.751Z,99339.91
2023-04-18T21:25:00.238Z,99339.93
2023-04-18T21:27:28.407Z,99335.76
2023-04-18T21:29:56.605Z,99332.52
2023-04-18T21:32:25.246Z,99331.77
2023-04-18T21:34:53.387Z,99333.87
2023-04-18T21:37:21.516Z,99331.75
2023-04-18T21:39:50.180Z,99329.95
2023-04-18T21:42:18.346Z,99327.16
2023-04-18T21:44:46.455Z,99325.23
2023-04-18T21:47:14.606Z,99324.04
2023-04-18T21:49:42.988Z,99320.02
2023-04-18T21:52:11.066Z,99319.20
2023-04-18T21:54:40.308Z,99314.58
2023-04-18T21:57:08.457Z,99305.09
2023-04-18T21:59:36.654Z,99303.24
2023-04-18T22:02:05.504Z,99302.84
2023-04-18T22:04:34.823Z,99300.42
2023-04-18T22:07:11.528Z,99302.80
2023-04-18T22:09:47.753Z,99299.42
2023-04-18T22:12:17.260Z,99299.95
2023-04-18T22:14:48.483Z,99305.19
2023-04-18T22:17:16.838Z,99300.99
2023-04-18T22:19:49.926Z,99301.97
2023-04-18T22:22:18.099Z,99304.77
2023-04-18T22:24:48.265Z,99301.24
2023-04-18T22:27:16.433Z,99300.50
2023-04-18T22:29:44.535Z,99305.13
2023-04-18T22:32:13.323Z,99300.65
2023-04-18T22:34:44.891Z,99296.58
2023-04-18T22:37:13.798Z,99293.13
2023-04-18T22:39:41.954Z,99292.30
2023-04-18T22:42:10.381Z,99291.73
2023-04-18T22:44:38.512Z,99284.88
2023-04-18T22:47:13.261Z,99277.40
2023-04-18T22:49:42.298Z,99279.42
2023-04-18T22:52:10.763Z,99276.05
2023-04-18T22:54:39.594Z,99274.82
2023-04-18T22:57:08.037Z,99274.86
2023-04-18T22:59:36.501Z,99272.06
2023-04-18T23:02:04.781Z,99274.36
2023-04-18T23:04:33.686Z,99270.45
2023-04-18T23:07:02.406Z,99267.32
2023-04-18T23:09:30.801Z,99264.48
2023-04-18T23:11:58.985Z,99263.30
2023-04-18T23:14:27.693Z,99259.64
2023-04-18T23:16:55.868Z,99257.46
2023-04-18T23:19:23.975Z,99256.42
2023-04-18T23:21:52.198Z,99251.98
2023-04-18T23:24:20.333Z,99249.34
2023-04-18T23:26:52.307Z,99246.73
2023-04-18T23:29:20.455Z,99246.25
2023-04-18T23:31:48.664Z,99236.87
2023-04-18T23:34:17.068Z,99234.88
2023-04-18T23:36:47.299Z,99232.52
2023-04-18T23:39:17.591Z,99228.44
2023-04-18T23:41:45.891Z,99227.19
2023-04-18T23:44:14.260Z,99226.20
2023-04-18T23:46:42.510Z,99221.48
2023-04-18T23:49:11.369Z,99218.84
2023-04-18T23:51:39.479Z,99219.75
2023-04-18T23:54:07.683Z,99216.04
2023-04-18T23:56:36.100Z,99214.26
2023-04-18T23:59:04.299Z,99217.34
